sensor_id;sensor_type;location;lat;lon;timestamp;temperature;humidity
4209;DHT22;36320;48.860;2.380;2023-05-29T00:00:50;21.30;54.70
4209;DHT22;36320;48.860;2.380;2023-05-29T00:03:18;21.30;54.90
4209;DHT22;36320;48.860;2.380;2023-05-29T00:05:44;21.00;55.00
4209;DHT22;36320;48.860;2.380;2023-05-29T00:08:10;21.00;55.10
4209;DHT22;36320;48.860;2.380;2023-05-29T00:10:35;21.00;55.30
4209;DHT22;36320;48.860;2.380;2023-05-29T00:13:03;20.90;55.30
4209;DHT22;36320;48.860;2.380;2023-05-29T00:15:32;20.90;55.50
4209;DHT22;36320;48.860;2.380;2023-05-29T00:17:58;20.90;55.50
4209;DHT22;36320;48.860;2.380;2023-05-29T00:20:24;20.90;55.60
4209;DHT22;36320;48.860;2.380;2023-05-29T00:22:51;20.90;55.60
4209;DHT22;36320;48.860;2.380;2023-05-29T00:25:18;20.80;55.60
4209;DHT22;36320;48.860;2.380;2023-05-29T00:27:45;20.70;55.80
4209;DHT22;36320;48.860;2.380;2023-05-29T00:30:11;20.60;56.00
4209;DHT22;36320;48.860;2.380;2023-05-29T00:32:36;20.60;56.10
4209;DHT22;36320;48.860;2.380;2023-05-29T00:35:02;20.60;56.20
4209;DHT22;36320;48.860;2.380;2023-05-29T00:37:28;20.60;56.30
4209;DHT22;36320;48.860;2.380;2023-05-29T00:39:54;20.60;56.30
4209;DHT22;36320;48.860;2.380;2023-05-29T00:42:22;20.50;56.30
4209;DHT22;36320;48.860;2.380;2023-05-29T00:44:47;20.60;56.40
4209;DHT22;36320;48.860;2.380;2023-05-29T00:47:15;20.60;56.30
4209;DHT22;36320;48.860;2.380;2023-05-29T00:49:41;20.50;56.40
4209;DHT22;36320;48.860;2.380;2023-05-29T00:52:07;20.50;56.40
4209;DHT22;36320;48.860;2.380;2023-05-29T00:54:34;20.40;56.40
4209;DHT22;36320;48.860;2.380;2023-05-29T00:57:01;20.40;56.60
4209;DHT22;36320;48.860;2.380;2023-05-29T00:59:32;20.40;56.60
4209;DHT22;36320;48.860;2.380;2023-05-29T01:02:02;20.40;57.30
4209;DHT22;36320;48.860;2.380;2023-05-29T01:04:28;20.30;56.60
4209;DHT22;36320;48.860;2.380;2023-05-29T01:06:53;20.20;56.70
4209;DHT22;36320;48.860;2.380;2023-05-29T01:09:20;20.30;56.70
4209;DHT22;36320;48.860;2.380;2023-05-29T01:12:23;20.20;57.00
4209;DHT22;36320;48.860;2.380;2023-05-29T01:28:57;20.10;57.50
4209;DHT22;36320;48.860;2.380;2023-05-29T01:31:26;19.90;57.70
4209;DHT22;36320;48.860;2.380;2023-05-29T01:33:58;19.80;58.00
4209;DHT22;36320;48.860;2.380;2023-05-29T01:36:25;19.70;58.10
4209;DHT22;36320;48.860;2.380;2023-05-29T01:38:53;19.60;58.10
4209;DHT22;36320;48.860;2.380;2023-05-29T01:41:21;19.70;58.30
4209;DHT22;36320;48.860;2.380;2023-05-29T01:43:49;19.70;58.30
4209;DHT22;36320;48.860;2.380;2023-05-29T01:46:18;19.60;58.40
4209;DHT22;36320;48.860;2.380;2023-05-29T01:48:46;19.60;58.50
4209;DHT22;36320;48.860;2.380;2023-05-29T01:51:12;19.70;58.60
4209;DHT22;36320;48.860;2.380;2023-05-29T01:53:39;19.50;58.70
4209;DHT22;36320;48.860;2.380;2023-05-29T01:56:06;19.40;59.10
4209;DHT22;36320;48.860;2.380;2023-05-29T01:58:34;19.30;59.50
4209;DHT22;36320;48.860;2.380;2023-05-29T02:01:01;19.20;59.60
4209;DHT22;36320;48.860;2.380;2023-05-29T02:03:27;19.30;59.70
4209;DHT22;36320;48.860;2.380;2023-05-29T02:05:57;19.40;59.50
4209;DHT22;36320;48.860;2.380;2023-05-29T02:08:23;19.40;59.90
4209;DHT22;36320;48.860;2.380;2023-05-29T02:10:49;19.40;59.40
4209;DHT22;36320;48.860;2.380;2023-05-29T02:13:15;19.50;59.30
4209;DHT22;36320;48.860;2.380;2023-05-29T02:15:41;19.30;59.60
4209;DHT22;36320;48.860;2.380;2023-05-29T02:18:11;19.20;59.70
4209;DHT22;36320;48.860;2.380;2023-05-29T02:20:40;19.10;59.80
4209;DHT22;36320;48.860;2.380;2023-05-29T02:23:10;19.10;60.00
4209;DHT22;36320;48.860;2.380;2023-05-29T02:25:36;19.10;60.80
4209;DHT22;36320;48.860;2.380;2023-05-29T02:28:03;19.20;60.00
4209;DHT22;36320;48.860;2.380;2023-05-29T02:30:30;19.10;60.90
4209;DHT22;36320;48.860;2.380;2023-05-29T02:32:59;18.90;60.60
4209;DHT22;36320;48.860;2.380;2023-05-29T02:35:24;18.80;61.00
4209;DHT22;36320;48.860;2.380;2023-05-29T02:37:52;18.90;61.80
4209;DHT22;36320;48.860;2.380;2023-05-29T02:40:19;18.80;61.00
4209;DHT22;36320;48.860;2.380;2023-05-29T02:42:45;18.80;61.20
4209;DHT22;36320;48.860;2.380;2023-05-29T02:45:12;18.70;62.50
4209;DHT22;36320;48.860;2.380;2023-05-29T02:47:38;18.70;62.10
4209;DHT22;36320;48.860;2.380;2023-05-29T02:50:06;18.70;61.80
4209;DHT22;36320;48.860;2.380;2023-05-29T02:52:32;18.70;61.80
4209;DHT22;36320;48.860;2.380;2023-05-29T02:54:59;18.70;61.90
4209;DHT22;36320;48.860;2.380;2023-05-29T02:57:25;18.70;62.20
4209;DHT22;36320;48.860;2.380;2023-05-29T02:59:51;18.60;62.10
4209;DHT22;36320;48.860;2.380;2023-05-29T03:02:20;18.70;62.30
4209;DHT22;36320;48.860;2.380;2023-05-29T03:04:46;18.40;62.40
4209;DHT22;36320;48.860;2.380;2023-05-29T03:07:12;18.60;62.80
4209;DHT22;36320;48.860;2.380;2023-05-29T03:09:38;18.60;62.80
4209;DHT22;36320;48.860;2.380;2023-05-29T03:12:04;18.50;62.90
4209;DHT22;36320;48.860;2.380;2023-05-29T03:14:30;18.40;63.20
4209;DHT22;36320;48.860;2.380;2023-05-29T03:17:01;18.40;63.50
4209;DHT22;36320;48.860;2.380;2023-05-29T03:19:29;18.20;63.90
4209;DHT22;36320;48.860;2.380;2023-05-29T03:21:55;18.20;64.30
4209;DHT22;36320;48.860;2.380;2023-05-29T03:24:21;18.40;64.20
4209;DHT22;36320;48.860;2.380;2023-05-29T03:26:49;18.30;64.30
4209;DHT22;36320;48.860;2.380;2023-05-29T03:29:15;18.30;64.20
4209;DHT22;36320;48.860;2.380;2023-05-29T03:31:43;18.30;64.30
4209;DHT22;36320;48.860;2.380;2023-05-29T03:34:09;18.40;64.30
4209;DHT22;36320;48.860;2.380;2023-05-29T03:36:34;18.10;64.70
4209;DHT22;36320;48.860;2.380;2023-05-29T03:39:03;18.10;65.00
4209;DHT22;36320;48.860;2.380;2023-05-29T03:41:29;18.10;65.20
4209;DHT22;36320;48.860;2.380;2023-05-29T03:43:55;18.00;65.20
4209;DHT22;36320;48.860;2.380;2023-05-29T03:46:22;17.90;65.70
4209;DHT22;36320;48.860;2.380;2023-05-29T03:48:47;18.00;65.80
4209;DHT22;36320;48.860;2.380;2023-05-29T03:51:13;18.00;66.20
4209;DHT22;36320;48.860;2.380;2023-05-29T03:53:39;18.00;66.00
4209;DHT22;36320;48.860;2.380;2023-05-29T03:56:05;18.00;66.40
4209;DHT22;36320;48.860;2.380;2023-05-29T03:58:31;17.80;66.30
4209;DHT22;36320;48.860;2.380;2023-05-29T04:00:56;18.00;66.70
4209;DHT22;36320;48.860;2.380;2023-05-29T04:03:22;17.90;66.40
4209;DHT22;36320;48.860;2.380;2023-05-29T04:05:49;18.10;66.70
4209;DHT22;36320;48.860;2.380;2023-05-29T04:08:15;18.10;66.40
4209;DHT22;36320;48.860;2.380;2023-05-29T04:10:41;18.00;66.10
4209;DHT22;36320;48.860;2.380;2023-05-29T04:13:07;18.00;66.40
4209;DHT22;36320;48.860;2.380;2023-05-29T04:15:32;17.90;66.50
4209;DHT22;36320;48.860;2.380;2023-05-29T04:18:00;17.70;67.30
4209;DHT22;36320;48.860;2.380;2023-05-29T04:20:26;17.80;68.40
4209;DHT22;36320;48.860;2.380;2023-05-29T04:22:52;17.60;67.80
4209;DHT22;36320;48.860;2.380;2023-05-29T04:25:17;17.80;68.00
4209;DHT22;36320;48.860;2.380;2023-05-29T04:27:44;17.90;67.50
4209;DHT22;36320;48.860;2.380;2023-05-29T04:30:14;18.00;67.30
4209;DHT22;36320;48.860;2.380;2023-05-29T04:32:40;18.20;67.20
4209;DHT22;36320;48.860;2.380;2023-05-29T04:35:09;18.10;67.00
4209;DHT22;36320;48.860;2.380;2023-05-29T04:37:37;18.00;67.50
4209;DHT22;36320;48.860;2.380;2023-05-29T04:40:05;17.80;68.20
4209;DHT22;36320;48.860;2.380;2023-05-29T04:42:38;18.00;67.70
4209;DHT22;36320;48.860;2.380;2023-05-29T04:45:07;18.20;67.50
4209;DHT22;36320;48.860;2.380;2023-05-29T04:47:36;18.20;67.40
4209;DHT22;36320;48.860;2.380;2023-05-29T04:50:14;18.30;67.10
4209;DHT22;36320;48.860;2.380;2023-05-29T04:52:40;18.00;67.30
4209;DHT22;36320;48.860;2.380;2023-05-29T04:55:08;18.00;67.50
4209;DHT22;36320;48.860;2.380;2023-05-29T04:57:35;18.00;67.50
4209;DHT22;36320;48.860;2.380;2023-05-29T05:00:01;17.80;67.60
4209;DHT22;36320;48.860;2.380;2023-05-29T05:02:30;18.00;68.10
4209;DHT22;36320;48.860;2.380;2023-05-29T05:04:56;18.10;67.90
4209;DHT22;36320;48.860;2.380;2023-05-29T05:07:23;18.30;67.80
4209;DHT22;36320;48.860;2.380;2023-05-29T05:09:49;18.20;67.50
4209;DHT22;36320;48.860;2.380;2023-05-29T05:12:14;18.30;67.00
4209;DHT22;36320;48.860;2.380;2023-05-29T05:14:40;18.30;67.20
4209;DHT22;36320;48.860;2.380;2023-05-29T05:17:06;18.20;67.50
4209;DHT22;36320;48.860;2.380;2023-05-29T05:19:32;18.10;67.60
4209;DHT22;36320;48.860;2.380;2023-05-29T05:21:59;18.00;67.70
4209;DHT22;36320;48.860;2.380;2023-05-29T05:24:26;18.00;68.00
4209;DHT22;36320;48.860;2.380;2023-05-29T05:26:51;18.20;68.10
4209;DHT22;36320;48.860;2.380;2023-05-29T05:29:17;18.40;67.70
4209;DHT22;36320;48.860;2.380;2023-05-29T05:31:44;18.40;67.60
4209;DHT22;36320;48.860;2.380;2023-05-29T05:34:09;18.60;67.50
4209;DHT22;36320;48.860;2.380;2023-05-29T05:36:35;18.60;67.10
4209;DHT22;36320;48.860;2.380;2023-05-29T05:39:02;18.70;66.80
4209;DHT22;36320;48.860;2.380;2023-05-29T05:41:28;18.60;66.80
4209;DHT22;36320;48.860;2.380;2023-05-29T05:43:54;18.50;66.90
4209;DHT22;36320;48.860;2.380;2023-05-29T05:46:19;18.50;67.00
4209;DHT22;36320;48.860;2.380;2023-05-29T05:48:45;18.50;66.90
4209;DHT22;36320;48.860;2.380;2023-05-29T05:51:11;18.60;66.70
4209;DHT22;36320;48.860;2.380;2023-05-29T05:53:39;18.30;66.80
4209;DHT22;36320;48.860;2.380;2023-05-29T05:56:05;18.40;67.50
4209;DHT22;36320;48.860;2.380;2023-05-29T05:58:31;18.40;67.60
4209;DHT22;36320;48.860;2.380;2023-05-29T06:00:57;18.70;67.10
4209;DHT22;36320;48.860;2.380;2023-05-29T06:03:23;19.00;66.70
4209;DHT22;36320;48.860;2.380;2023-05-29T06:05:50;19.30;66.30
4209;DHT22;36320;48.860;2.380;2023-05-29T06:08:17;19.40;65.60
4209;DHT22;36320;48.860;2.380;2023-05-29T06:10:43;19.40;65.80
4209;DHT22;36320;48.860;2.380;2023-05-29T06:13:09;19.20;65.10
4209;DHT22;36320;48.860;2.380;2023-05-29T06:15:34;19.00;65.50
4209;DHT22;36320;48.860;2.380;2023-05-29T06:18:01;19.20;65.70
4209;DHT22;36320;48.860;2.380;2023-05-29T06:20:26;19.20;65.10
4209;DHT22;36320;48.860;2.380;2023-05-29T06:22:52;19.30;65.30
4209;DHT22;36320;48.860;2.380;2023-05-29T06:25:19;19.40;64.80
4209;DHT22;36320;48.860;2.380;2023-05-29T06:27:45;19.20;64.80
4209;DHT22;36320;48.860;2.380;2023-05-29T06:30:14;19.20;65.10
4209;DHT22;36320;48.860;2.380;2023-05-29T06:32:40;19.10;65.10
4209;DHT22;36320;48.860;2.380;2023-05-29T06:35:06;19.10;65.30
4209;DHT22;36320;48.860;2.380;2023-05-29T06:37:32;19.20;64.90
4209;DHT22;36320;48.860;2.380;2023-05-29T06:39:58;19.30;64.70
4209;DHT22;36320;48.860;2.380;2023-05-29T06:42:25;19.60;64.30
4209;DHT22;36320;48.860;2.380;2023-05-29T06:44:51;19.70;64.00
4209;DHT22;36320;48.860;2.380;2023-05-29T06:47:17;19.70;63.70
4209;DHT22;36320;48.860;2.380;2023-05-29T06:49:42;19.70;63.60
4209;DHT22;36320;48.860;2.380;2023-05-29T06:52:08;19.80;63.60
4209;DHT22;36320;48.860;2.380;2023-05-29T06:54:34;20.10;63.30
4209;DHT22;36320;48.860;2.380;2023-05-29T06:57:00;20.10;62.90
4209;DHT22;36320;48.860;2.380;2023-05-29T06:59:26;20.20;63.30
4209;DHT22;36320;48.860;2.380;2023-05-29T07:01:53;20.20;62.30
4209;DHT22;36320;48.860;2.380;2023-05-29T07:04:19;20.30;62.50
4209;DHT22;36320;48.860;2.380;2023-05-29T07:06:44;20.40;62.20
4209;DHT22;36320;48.860;2.380;2023-05-29T07:09:11;20.30;61.90
4209;DHT22;36320;48.860;2.380;2023-05-29T07:11:38;20.30;62.00
4209;DHT22;36320;48.860;2.380;2023-05-29T07:14:06;20.30;61.70
4209;DHT22;36320;48.860;2.380;2023-05-29T07:16:32;20.10;61.80
4209;DHT22;36320;48.860;2.380;2023-05-29T07:18:57;20.10;61.90
4209;DHT22;36320;48.860;2.380;2023-05-29T07:21:24;20.30;62.00
4209;DHT22;36320;48.860;2.380;2023-05-29T07:23:53;20.40;61.80
4209;DHT22;36320;48.860;2.380;2023-05-29T07:26:19;20.50;61.40
4209;DHT22;36320;48.860;2.380;2023-05-29T07:28:48;20.60;61.50
4209;DHT22;36320;48.860;2.380;2023-05-29T07:31:16;20.60;61.00
4209;DHT22;36320;48.860;2.380;2023-05-29T07:33:42;20.60;61.10
4209;DHT22;36320;48.860;2.380;2023-05-29T07:36:10;20.80;61.00
4209;DHT22;36320;48.860;2.380;2023-05-29T07:38:36;20.90;60.10
4209;DHT22;36320;48.860;2.380;2023-05-29T07:41:03;21.00;60.20
4209;DHT22;36320;48.860;2.380;2023-05-29T07:43:30;20.80;59.90
4209;DHT22;36320;48.860;2.380;2023-05-29T07:45:56;20.70;60.20
4209;DHT22;36320;48.860;2.380;2023-05-29T07:48:22;20.60;60.30
4209;DHT22;36320;48.860;2.380;2023-05-29T07:50:48;20.60;60.60
4209;DHT22;36320;48.860;2.380;2023-05-29T07:53:20;20.70;60.40
4209;DHT22;36320;48.860;2.380;2023-05-29T07:55:46;20.70;60.20
4209;DHT22;36320;48.860;2.380;2023-05-29T07:58:12;20.70;60.30
4209;DHT22;36320;48.860;2.380;2023-05-29T08:00:38;21.00;60.00
4209;DHT22;36320;48.860;2.380;2023-05-29T08:03:04;21.40;59.70
4209;DHT22;36320;48.860;2.380;2023-05-29T08:05:31;21.30;59.20
4209;DHT22;36320;48.860;2.380;2023-05-29T08:07:58;21.30;59.10
4209;DHT22;36320;48.860;2.380;2023-05-29T08:10:25;21.30;59.30
4209;DHT22;36320;48.860;2.380;2023-05-29T08:12:51;21.30;59.00
4209;DHT22;36320;48.860;2.380;2023-05-29T08:15:19;21.30;58.90
4209;DHT22;36320;48.860;2.380;2023-05-29T08:17:48;21.60;59.00
4209;DHT22;36320;48.860;2.380;2023-05-29T08:20:13;21.60;58.60
4209;DHT22;36320;48.860;2.380;2023-05-29T08:22:39;21.80;58.60
4209;DHT22;36320;48.860;2.380;2023-05-29T08:25:05;21.80;58.20
4209;DHT22;36320;48.860;2.380;2023-05-29T08:27:31;21.70;58.10
4209;DHT22;36320;48.860;2.380;2023-05-29T08:29:58;21.70;58.20
4209;DHT22;36320;48.860;2.380;2023-05-29T08:32:24;21.70;58.10
4209;DHT22;36320;48.860;2.380;2023-05-29T08:34:50;21.80;58.00
4209;DHT22;36320;48.860;2.380;2023-05-29T08:37:16;21.80;57.90
4209;DHT22;36320;48.860;2.380;2023-05-29T08:39:46;21.50;57.90
4209;DHT22;36320;48.860;2.380;2023-05-29T08:42:14;21.50;58.30
4209;DHT22;36320;48.860;2.380;2023-05-29T08:44:46;21.50;58.20
4209;DHT22;36320;48.860;2.380;2023-05-29T08:47:17;21.60;58.20
4209;DHT22;36320;48.860;2.380;2023-05-29T08:49:54;21.40;58.20
4209;DHT22;36320;48.860;2.380;2023-05-29T08:52:24;21.50;58.20
4209;DHT22;36320;48.860;2.380;2023-05-29T08:54:52;21.50;58.20
4209;DHT22;36320;48.860;2.380;2023-05-29T08:57:18;21.50;58.00
4209;DHT22;36320;48.860;2.380;2023-05-29T08:59:47;21.40;57.90
4209;DHT22;36320;48.860;2.380;2023-05-29T09:02:15;21.80;57.90
4209;DHT22;36320;48.860;2.380;2023-05-29T09:04:41;21.90;57.80
4209;DHT22;36320;48.860;2.380;2023-05-29T09:07:07;22.00;57.60
4209;DHT22;36320;48.860;2.380;2023-05-29T09:09:34;22.20;57.20
4209;DHT22;36320;48.860;2.380;2023-05-29T09:12:00;22.20;56.90
4209;DHT22;36320;48.860;2.380;2023-05-29T09:14:52;22.30;57.00
4209;DHT22;36320;48.860;2.380;2023-05-29T09:17:21;22.70;56.80
4209;DHT22;36320;48.860;2.380;2023-05-29T09:19:50;23.10;56.60
4209;DHT22;36320;48.860;2.380;2023-05-29T09:22:16;22.80;56.00
4209;DHT22;36320;48.860;2.380;2023-05-29T09:24:47;22.70;56.00
4209;DHT22;36320;48.860;2.380;2023-05-29T09:27:17;22.50;56.10
4209;DHT22;36320;48.860;2.380;2023-05-29T09:29:46;22.60;56.30
4209;DHT22;36320;48.860;2.380;2023-05-29T09:32:15;22.90;56.00
4209;DHT22;36320;48.860;2.380;2023-05-29T09:34:42;22.90;55.60
4209;DHT22;36320;48.860;2.380;2023-05-29T09:37:11;23.00;55.60
4209;DHT22;36320;48.860;2.380;2023-05-29T09:39:50;23.20;55.50
4209;DHT22;36320;48.860;2.380;2023-05-29T09:42:19;23.30;55.10
4209;DHT22;36320;48.860;2.380;2023-05-29T09:44:49;23.40;55.10
4209;DHT22;36320;48.860;2.380;2023-05-29T09:47:35;23.60;55.00
4209;DHT22;36320;48.860;2.380;2023-05-29T09:50:01;23.90;54.60
4209;DHT22;36320;48.860;2.380;2023-05-29T09:52:29;23.90;54.10
4209;DHT22;36320;48.860;2.380;2023-05-29T09:54:55;24.10;53.90
4209;DHT22;36320;48.860;2.380;2023-05-29T09:57:26;23.90;53.70
4209;DHT22;36320;48.860;2.380;2023-05-29T09:59:52;23.70;54.00
4209;DHT22;36320;48.860;2.380;2023-05-29T10:02:19;23.40;54.20
4209;DHT22;36320;48.860;2.380;2023-05-29T10:04:45;23.50;54.30
4209;DHT22;36320;48.860;2.380;2023-05-29T10:07:28;23.30;54.30
4209;DHT22;36320;48.860;2.380;2023-05-29T10:10:00;23.60;54.10
4209;DHT22;36320;48.860;2.380;2023-05-29T10:12:30;23.60;54.10
4209;DHT22;36320;48.860;2.380;2023-05-29T10:14:57;23.60;54.20
4209;DHT22;36320;48.860;2.380;2023-05-29T10:17:28;23.70;54.20
4209;DHT22;36320;48.860;2.380;2023-05-29T10:19:58;23.80;54.00
4209;DHT22;36320;48.860;2.380;2023-05-29T10:22:30;23.80;54.30
4209;DHT22;36320;48.860;2.380;2023-05-29T10:25:00;23.70;53.70
4209;DHT22;36320;48.860;2.380;2023-05-29T10:27:26;23.50;54.00
4209;DHT22;36320;48.860;2.380;2023-05-29T10:30:02;23.90;54.70
4209;DHT22;36320;48.860;2.380;2023-05-29T10:32:56;23.80;53.40
4209;DHT22;36320;48.860;2.380;2023-05-29T10:36:04;23.80;53.60
4209;DHT22;36320;48.860;2.380;2023-05-29T10:38:32;24.00;53.60
4209;DHT22;36320;48.860;2.380;2023-05-29T10:43:59;24.20;53.30
4209;DHT22;36320;48.860;2.380;2023-05-29T10:49:18;24.30;53.00
4209;DHT22;36320;48.860;2.380;2023-05-29T10:51:44;24.30;52.90
4209;DHT22;36320;48.860;2.380;2023-05-29T10:54:21;24.30;52.90
4209;DHT22;36320;48.860;2.380;2023-05-29T10:57:00;24.50;53.10
4209;DHT22;36320;48.860;2.380;2023-05-29T10:59:27;24.30;52.60
4209;DHT22;36320;48.860;2.380;2023-05-29T11:01:55;24.50;52.40
4209;DHT22;36320;48.860;2.380;2023-05-29T11:06:48;24.50;52.80
4209;DHT22;36320;48.860;2.380;2023-05-29T11:09:37;24.70;52.60
4209;DHT22;36320;48.860;2.380;2023-05-29T11:12:15;24.70;53.10
4209;DHT22;36320;48.860;2.380;2023-05-29T11:14:59;24.50;52.60
4209;DHT22;36320;48.860;2.380;2023-05-29T11:20:07;25.40;52.80
4209;DHT22;36320;48.860;2.380;2023-05-29T11:25:27;24.90;52.20
4209;DHT22;36320;48.860;2.380;2023-05-29T11:27:53;25.00;52.10
4209;DHT22;36320;48.860;2.380;2023-05-29T11:30:20;25.00;51.70
4209;DHT22;36320;48.860;2.380;2023-05-29T11:32:48;25.00;51.70
4209;DHT22;36320;48.860;2.380;2023-05-29T11:35:17;25.90;52.30
4209;DHT22;36320;48.860;2.380;2023-05-29T11:37:45;25.10;51.60
4209;DHT22;36320;48.860;2.380;2023-05-29T11:40:13;25.10;51.70
4209;DHT22;36320;48.860;2.380;2023-05-29T11:42:44;24.90;51.50
4209;DHT22;36320;48.860;2.380;2023-05-29T11:45:18;25.10;51.60
4209;DHT22;36320;48.860;2.380;2023-05-29T11:48:01;25.00;51.70
4209;DHT22;36320;48.860;2.380;2023-05-29T11:50:30;25.10;51.60
4209;DHT22;36320;48.860;2.380;2023-05-29T11:53:00;25.20;51.30
4209;DHT22;36320;48.860;2.380;2023-05-29T11:55:27;25.00;51.20
4209;DHT22;36320;48.860;2.380;2023-05-29T11:57:57;25.20;51.20
4209;DHT22;36320;48.860;2.380;2023-05-29T12:00:24;25.20;51.10
4209;DHT22;36320;48.860;2.380;2023-05-29T12:02:51;25.20;51.00
4209;DHT22;36320;48.860;2.380;2023-05-29T12:05:17;25.50;50.70
4209;DHT22;36320;48.860;2.380;2023-05-29T12:07:55;25.70;50.50
4209;DHT22;36320;48.860;2.380;2023-05-29T12:10:22;25.70;50.80
4209;DHT22;36320;48.860;2.380;2023-05-29T12:12:55;25.70;50.10
4209;DHT22;36320;48.860;2.380;2023-05-29T12:15:23;25.60;50.30
4209;DHT22;36320;48.860;2.380;2023-05-29T12:17:50;25.80;50.10
4209;DHT22;36320;48.860;2.380;2023-05-29T12:20:22;25.80;49.70
4209;DHT22;36320;48.860;2.380;2023-05-29T12:23:01;26.00;49.60
4209;DHT22;36320;48.860;2.380;2023-05-29T12:25:27;26.00;49.10
4209;DHT22;36320;48.860;2.380;2023-05-29T12:27:56;26.00;49.20
4209;DHT22;36320;48.860;2.380;2023-05-29T12:30:23;26.10;49.10
4209;DHT22;36320;48.860;2.380;2023-05-29T12:32:52;26.20;48.60
4209;DHT22;36320;48.860;2.380;2023-05-29T12:35:27;26.20;48.10
4209;DHT22;36320;48.860;2.380;2023-05-29T12:38:04;26.30;47.90
4209;DHT22;36320;48.860;2.380;2023-05-29T12:40:35;26.10;47.30
4209;DHT22;36320;48.860;2.380;2023-05-29T12:43:06;26.20;47.20
4209;DHT22;36320;48.860;2.380;2023-05-29T12:45:33;26.20;47.00
4209;DHT22;36320;48.860;2.380;2023-05-29T12:48:07;26.30;46.80
4209;DHT22;36320;48.860;2.380;2023-05-29T12:53:03;26.30;46.60
4209;DHT22;36320;48.860;2.380;2023-05-29T12:55:33;26.10;46.70
4209;DHT22;36320;48.860;2.380;2023-05-29T12:58:03;26.20;46.90
4209;DHT22;36320;48.860;2.380;2023-05-29T13:00:28;26.20;46.80
4209;DHT22;36320;48.860;2.380;2023-05-29T13:02:56;26.20;46.90
4209;DHT22;36320;48.860;2.380;2023-05-29T13:05:24;26.40;47.00
4209;DHT22;36320;48.860;2.380;2023-05-29T13:07:50;26.40;46.60
4209;DHT22;36320;48.860;2.380;2023-05-29T13:10:18;26.40;46.60
4209;DHT22;36320;48.860;2.380;2023-05-29T13:12:45;26.40;46.50
4209;DHT22;36320;48.860;2.380;2023-05-29T13:15:12;26.30;46.40
4209;DHT22;36320;48.860;2.380;2023-05-29T13:17:40;26.30;46.60
4209;DHT22;36320;48.860;2.380;2023-05-29T13:20:11;26.40;46.70
4209;DHT22;36320;48.860;2.380;2023-05-29T13:22:38;26.30;46.50
4209;DHT22;36320;48.860;2.380;2023-05-29T13:25:08;26.30;46.60
4209;DHT22;36320;48.860;2.380;2023-05-29T13:27:39;26.30;46.60
4209;DHT22;36320;48.860;2.380;2023-05-29T13:30:06;26.20;46.50
4209;DHT22;36320;48.860;2.380;2023-05-29T13:32:32;26.30;46.60
4209;DHT22;36320;48.860;2.380;2023-05-29T13:35:02;26.40;46.60
4209;DHT22;36320;48.860;2.380;2023-05-29T13:37:29;26.40;46.60
4209;DHT22;36320;48.860;2.380;2023-05-29T13:39:56;26.40;46.60
4209;DHT22;36320;48.860;2.380;2023-05-29T13:42:22;26.40;46.60
4209;DHT22;36320;48.860;2.380;2023-05-29T13:44:49;26.40;46.60
4209;DHT22;36320;48.860;2.380;2023-05-29T13:47:15;26.50;46.40
4209;DHT22;36320;48.860;2.380;2023-05-29T13:49:42;26.50;46.10
4209;DHT22;36320;48.860;2.380;2023-05-29T13:52:08;26.60;46.00
4209;DHT22;36320;48.860;2.380;2023-05-29T13:54:34;26.40;45.80
4209;DHT22;36320;48.860;2.380;2023-05-29T13:57:06;26.60;45.80
4209;DHT22;36320;48.860;2.380;2023-05-29T13:59:33;26.60;46.20
4209;DHT22;36320;48.860;2.380;2023-05-29T14:01:59;26.50;46.30
4209;DHT22;36320;48.860;2.380;2023-05-29T14:04:26;26.70;46.50
4209;DHT22;36320;48.860;2.380;2023-05-29T14:06:52;26.80;46.30
4209;DHT22;36320;48.860;2.380;2023-05-29T14:09:19;26.80;46.30
4209;DHT22;36320;48.860;2.380;2023-05-29T14:11:58;26.70;46.40
4209;DHT22;36320;48.860;2.380;2023-05-29T14:14:26;26.70;46.50
4209;DHT22;36320;48.860;2.380;2023-05-29T14:16:52;26.80;46.40
4209;DHT22;36320;48.860;2.380;2023-05-29T14:19:19;27.00;46.40
4209;DHT22;36320;48.860;2.380;2023-05-29T14:21:45;27.00;46.30
4209;DHT22;36320;48.860;2.380;2023-05-29T14:24:11;27.00;46.20
4209;DHT22;36320;48.860;2.380;2023-05-29T14:26:38;27.20;46.20
4209;DHT22;36320;48.860;2.380;2023-05-29T14:29:05;27.30;46.00
4209;DHT22;36320;48.860;2.380;2023-05-29T14:31:31;27.20;45.80
4209;DHT22;36320;48.860;2.380;2023-05-29T14:33:57;27.20;46.00
4209;DHT22;36320;48.860;2.380;2023-05-29T14:36:23;27.00;45.70
4209;DHT22;36320;48.860;2.380;2023-05-29T14:38:49;27.00;45.90
4209;DHT22;36320;48.860;2.380;2023-05-29T14:41:17;27.10;45.90
4209;DHT22;36320;48.860;2.380;2023-05-29T14:43:44;27.10;45.90
4209;DHT22;36320;48.860;2.380;2023-05-29T14:46:10;27.30;45.90
4209;DHT22;36320;48.860;2.380;2023-05-29T14:48:36;27.30;45.90
4209;DHT22;36320;48.860;2.380;2023-05-29T14:51:02;27.40;46.00
4209;DHT22;36320;48.860;2.380;2023-05-29T14:53:29;27.50;45.80
4209;DHT22;36320;48.860;2.380;2023-05-29T14:55:59;27.70;45.60
4209;DHT22;36320;48.860;2.380;2023-05-29T14:58:30;27.80;45.40
4209;DHT22;36320;48.860;2.380;2023-05-29T15:00:55;28.00;45.50
4209;DHT22;36320;48.860;2.380;2023-05-29T15:03:21;27.90;45.30
4209;DHT22;36320;48.860;2.380;2023-05-29T15:05:51;27.70;45.40
4209;DHT22;36320;48.860;2.380;2023-05-29T15:08:20;28.00;45.30
4209;DHT22;36320;48.860;2.380;2023-05-29T15:10:48;28.30;45.10
4209;DHT22;36320;48.860;2.380;2023-05-29T15:13:13;28.30;44.80
4209;DHT22;36320;48.860;2.380;2023-05-29T15:15:39;28.60;44.60
4209;DHT22;36320;48.860;2.380;2023-05-29T15:18:05;28.70;44.60
4209;DHT22;36320;48.860;2.380;2023-05-29T15:20:31;29.30;44.80
4209;DHT22;36320;48.860;2.380;2023-05-29T15:22:57;31.70;43.10
4209;DHT22;36320;48.860;2.380;2023-05-29T15:25:23;38.00;37.30
4209;DHT22;36320;48.860;2.380;2023-05-29T15:27:53;42.60;30.60
4209;DHT22;36320;48.860;2.380;2023-05-29T15:30:20;46.50;27.20
4209;DHT22;36320;48.860;2.380;2023-05-29T15:32:46;48.70;24.90
4209;DHT22;36320;48.860;2.380;2023-05-29T15:35:14;50.60;23.60
4209;DHT22;36320;48.860;2.380;2023-05-29T15:37:41;51.80;22.00
4209;DHT22;36320;48.860;2.380;2023-05-29T15:40:08;52.60;20.90
4209;DHT22;36320;48.860;2.380;2023-05-29T15:42:37;52.50;20.50
4209;DHT22;36320;48.860;2.380;2023-05-29T15:45:04;52.80;20.00
4209;DHT22;36320;48.860;2.380;2023-05-29T15:47:31;52.60;19.70
4209;DHT22;36320;48.860;2.380;2023-05-29T15:49:58;53.80;19.20
4209;DHT22;36320;48.860;2.380;2023-05-29T15:52:26;54.10;18.60
4209;DHT22;36320;48.860;2.380;2023-05-29T15:54:52;54.10;17.70
4209;DHT22;36320;48.860;2.380;2023-05-29T15:57:18;55.00;18.20
4209;DHT22;36320;48.860;2.380;2023-05-29T15:59:44;52.30;17.40
4209;DHT22;36320;48.860;2.380;2023-05-29T16:02:11;53.30;18.40
4209;DHT22;36320;48.860;2.380;2023-05-29T16:04:37;56.30;17.60
4209;DHT22;36320;48.860;2.380;2023-05-29T16:07:03;57.20;16.90
4209;DHT22;36320;48.860;2.380;2023-05-29T16:09:29;57.40;16.30
4209;DHT22;36320;48.860;2.380;2023-05-29T16:11:55;56.60;16.10
4209;DHT22;36320;48.860;2.380;2023-05-29T16:14:21;57.10;16.20
4209;DHT22;36320;48.860;2.380;2023-05-29T16:16:47;56.90;15.90
4209;DHT22;36320;48.860;2.380;2023-05-29T16:19:12;57.90;15.80